Time;durP1;ratioP1;P1;durP2;ratioP2;P2;SDS_P1;SDS_P2;PMS_P1;PMS_P2;Temp;Humidity;BMP_temperature;BMP_pressure;BME280_temperature;BME280_humidity;BME280_pressure;Samples;Min_cycle;Max_cycle;Signal;HPM_P1;HPM_P2
2022/04/03 00:02:14;;;;;;;5.50;5.10;;;;;;;;;;5030528;28;20205;-88
2022/04/03 00:04:40;;;;;;;6.40;5.30;;;;;;;;;;5037858;28;20182;-88
2022/04/03 00:07:06;;;;;;;5.07;4.57;;;;;;;;;;5026039;28;20245;-87
2022/04/03 00:09:32;;;;;;;7.45;4.63;;;;;;;;;;5037815;28;20421;-88
2022/04/03 00:11:58;;;;;;;5.22;4.72;;;;;;;;;;5035809;28;20186;-88
2022/04/03 00:14:24;;;;;;;4.25;3.85;;;;;;;;;;5029744;28;20190;-88
2022/04/03 00:16:50;;;;;;;4.75;4.15;;;;;;;;;;5039247;28;20186;-88
2022/04/03 00:19:16;;;;;;;6.38;5.22;;;;;;;;;;5039781;28;20184;-88
2022/04/03 00:21:42;;;;;;;7.18;5.30;;;;;;;;;;5036822;28;20214;-86
2022/04/03 00:24:08;;;;;;;5.47;4.65;;;;;;;;;;5036764;28;20178;-87
2022/04/03 00:26:34;;;;;;;5.72;4.97;;;;;;;;;;5037312;28;20186;-87
2022/04/03 00:29:00;;;;;;;5.90;5.30;;;;;;;;;;5039709;28;20194;-89
2022/04/03 00:31:26;;;;;;;4.65;4.25;;;;;;;;;;5024660;28;20187;-89
2022/04/03 00:33:52;;;;;;;5.78;4.82;;;;;;;;;;5041404;28;20185;-87
2022/04/03 00:36:19;;;;;;;7.05;4.47;;;;;;;;;;5026673;28;20250;-86
2022/04/03 00:38:45;;;;;;;5.07;4.57;;;;;;;;;;5030647;28;20243;-87
2022/04/03 00:41:12;;;;;;;5.00;4.55;;;;;;;;;;5041006;28;20222;-87
2022/04/03 00:43:38;;;;;;;5.30;4.35;;;;;;;;;;5038314;28;20219;-91
2022/04/03 00:46:04;;;;;;;5.00;4.50;;;;;;;;;;5052541;28;20192;-89
2022/04/03 00:48:31;;;;;;;6.43;5.30;;;;;;;;;;5029641;28;20178;-87
2022/04/03 00:50:57;;;;;;;6.57;4.75;;;;;;;;;;5037601;28;20182;-88
2022/04/03 00:53:23;;;;;;;7.32;4.30;;;;;;;;;;5040844;28;20370;-88
2022/04/03 00:55:49;;;;;;;4.80;4.50;;;;;;;;;;5029336;28;20259;-86
2022/04/03 00:58:15;;;;;;;6.75;3.95;;;;;;;;;;5041648;28;20182;-87
2022/04/03 01:00:41;;;;;;;4.07;3.65;;;;;;;;;;5043854;28;20289;-87
2022/04/03 01:03:07;;;;;;;6.70;4.10;;;;;;;;;;5037197;28;20182;-88
2022/04/03 01:05:33;;;;;;;4.40;4.00;;;;;;;;;;5039731;28;20545;-87
2022/04/03 01:08:00;;;;;;;6.22;3.47;;;;;;;;;;5040435;28;20254;-88
2022/04/03 01:10:26;;;;;;;4.63;3.92;;;;;;;;;;5040523;28;20182;-87
2022/04/03 01:12:52;;;;;;;4.40;4.00;;;;;;;;;;5042051;28;20181;-87
2022/04/03 01:15:19;;;;;;;4.95;4.45;;;;;;;;;;5039709;28;20194;-87
2022/04/03 01:17:45;;;;;;;6.88;3.80;;;;;;;;;;5041691;28;20182;-87
2022/04/03 01:20:12;;;;;;;6.68;4.22;;;;;;;;;;5043188;28;20186;-87
2022/04/03 01:22:38;;;;;;;5.45;4.95;;;;;;;;;;5026848;28;20198;-87
2022/04/03 01:25:05;;;;;;;5.18;4.43;;;;;;;;;;5028172;28;20181;-87
2022/04/03 01:27:31;;;;;;;4.22;3.83;;;;;;;;;;5042980;28;20174;-87
2022/04/03 01:29:57;;;;;;;4.72;3.40;;;;;;;;;;5039572;28;20185;-87
2022/04/03 01:32:23;;;;;;;6.88;4.18;;;;;;;;;;5040499;28;20175;-88
2022/04/03 01:34:49;;;;;;;4.70;4.13;;;;;;;;;;5055072;28;20184;-87
2022/04/03 01:37:15;;;;;;;4.18;3.60;;;;;;;;;;5038905;28;20184;-87
2022/04/03 01:39:41;;;;;;;5.50;4.78;;;;;;;;;;5029160;28;20265;-88
2022/04/03 01:42:09;;;;;;;3.60;3.30;;;;;;;;;;5032255;28;20253;-88
2022/04/03 01:44:35;;;;;;;4.32;3.92;;;;;;;;;;5032262;28;20182;-88
2022/04/03 01:47:01;;;;;;;5.38;4.63;;;;;;;;;;5040813;28;20186;-88
2022/04/03 01:49:27;;;;;;;3.83;3.47;;;;;;;;;;5043098;28;20186;-88
2022/04/03 01:51:53;;;;;;;5.07;4.00;;;;;;;;;;5039991;28;20240;-88
2022/04/03 01:54:19;;;;;;;5.18;3.83;;;;;;;;;;5033311;28;20186;-88
2022/04/03 01:56:45;;;;;;;7.90;4.57;;;;;;;;;;5033042;28;20194;-87
2022/04/03 01:59:11;;;;;;;4.35;3.45;;;;;;;;;;5029035;28;20193;-88
2022/04/03 02:01:37;;;;;;;4.07;3.13;;;;;;;;;;5042337;28;20214;-88
2022/04/03 02:04:03;;;;;;;5.50;3.35;;;;;;;;;;5040452;28;20174;-89
2022/04/03 02:06:29;;;;;;;4.13;3.70;;;;;;;;;;5051736;28;20175;-88
2022/04/03 02:08:55;;;;;;;4.05;3.53;;;;;;;;;;5056379;28;20204;-89
2022/04/03 02:11:21;;;;;;;3.80;3.45;;;;;;;;;;5040497;28;20224;-89
2022/04/03 02:13:47;;;;;;;5.65;3.50;;;;;;;;;;5035798;28;20252;-89
2022/04/03 02:16:14;;;;;;;3.78;3.47;;;;;;;;;;5039930;28;20201;-89
2022/04/03 02:18:40;;;;;;;3.83;3.40;;;;;;;;;;5038635;28;20182;-89
2022/04/03 02:21:06;;;;;;;4.53;3.15;;;;;;;;;;5036466;28;20208;-89
2022/04/03 02:23:32;;;;;;;4.50;3.40;;;;;;;;;;5034847;28;20286;-88
2022/04/03 02:25:58;;;;;;;4.30;3.67;;;;;;;;;;5039688;28;20262;-89
2022/04/03 02:28:24;;;;;;;3.90;3.50;;;;;;;;;;5041960;28;20215;-89
2022/04/03 02:30:50;;;;;;;5.80;3.85;;;;;;;;;;5039468;28;20563;-89
2022/04/03 02:33:16;;;;;;;3.50;3.00;;;;;;;;;;5040663;28;20281;-88
2022/04/03 02:35:42;;;;;;;5.53;3.90;;;;;;;;;;5038135;28;20595;-89
2022/04/03 02:38:09;;;;;;;4.32;3.20;;;;;;;;;;5032759;28;20195;-89
2022/04/03 02:40:36;;;;;;;5.53;3.38;;;;;;;;;;5040429;28;20201;-89
2022/04/03 02:43:02;;;;;;;4.32;2.97;;;;;;;;;;5029510;28;20178;-89
2022/04/03 02:45:28;;;;;;;5.13;3.95;;;;;;;;;;5041504;28;20181;-89
2022/04/03 02:47:55;;;;;;;3.92;3.53;;;;;;;;;;5034679;28;20273;-89
2022/04/03 02:50:22;;;;;;;7.07;4.10;;;;;;;;;;5029455;28;20743;-88
2022/04/03 02:52:49;;;;;;;9.05;3.15;;;;;;;;;;5041370;28;20571;-88
2022/04/03 02:55:16;;;;;;;2.80;2.60;;;;;;;;;;5032725;28;20177;-88
2022/04/03 02:57:42;;;;;;;5.53;3.65;;;;;;;;;;5044095;28;20177;-88
2022/04/03 03:00:14;;;;;;;4.05;3.75;;;;;;;;;;5038576;28;20220;-88
2022/04/03 03:02:40;;;;;;;5.60;3.60;;;;;;;;;;5038479;28;20197;-88
2022/04/03 03:05:07;;;;;;;3.78;3.42;;;;;;;;;;5036784;28;20230;-88
2022/04/03 03:07:39;;;;;;;3.45;3.00;;;;;;;;;;5045660;28;20333;-87
2022/04/03 03:10:06;;;;;;;4.65;3.05;;;;;;;;;;5036448;28;20178;-88
2022/04/03 03:12:33;;;;;;;3.35;3.05;;;;;;;;;;5028241;28;20174;-87
2022/04/03 03:14:59;;;;;;;3.38;2.95;;;;;;;;;;5042055;28;20264;-89
2022/04/03 03:17:25;;;;;;;7.93;4.00;;;;;;;;;;5039000;28;20193;-88
2022/04/03 03:19:51;;;;;;;6.80;3.72;;;;;;;;;;5040591;28;20197;-88
2022/04/03 03:22:18;;;;;;;3.20;3.00;;;;;;;;;;5040159;28;20201;-88
2022/04/03 03:24:44;;;;;;;5.40;3.72;;;;;;;;;;5042251;28;20174;-89
2022/04/03 03:27:10;;;;;;;4.05;3.30;;;;;;;;;;5041923;28;20201;-89
2022/04/03 03:29:36;;;;;;;6.63;3.30;;;;;;;;;;5037700;28;20189;-89
2022/04/03 03:32:02;;;;;;;6.05;3.28;;;;;;;;;;5029356;28;20190;-88
2022/04/03 03:34:28;;;;;;;7.03;3.10;;;;;;;;;;5040722;28;20253;-88
2022/04/03 03:36:55;;;;;;;6.57;4.00;;;;;;;;;;5037873;28;20185;-87
2022/04/03 03:39:21;;;;;;;6.07;3.13;;;;;;;;;;5037534;28;20254;-88
2022/04/03 03:41:47;;;;;;;4.22;3.83;;;;;;;;;;5037107;28;20241;-88
2022/04/03 03:44:13;;;;;;;3.22;2.78;;;;;;;;;;5042150;28;20181;-88
2022/04/03 03:46:42;;;;;;;4.45;2.95;;;;;;;;;;5040482;28;20207;-88
2022/04/03 03:49:08;;;;;;;6.22;3.40;;;;;;;;;;5039993;28;20209;-88
2022/04/03 03:51:35;;;;;;;4.68;4.18;;;;;;;;;;5024409;28;20376;-87
2022/04/03 03:54:01;;;;;;;4.38;3.25;;;;;;;;;;5028753;28;20182;-88
2022/04/03 03:56:27;;;;;;;4.65;3.33;;;;;;;;;;5033996;28;20192;-88
2022/04/03 03:58:53;;;;;;;10.23;4.55;;;;;;;;;;5038407;28;20190;-87
2022/04/03 04:01:20;;;;;;;13.27;3.47;;;;;;;;;;5038451;28;20273;-88
2022/04/03 04:03:46;;;;;;;6.43;3.05;;;;;;;;;;5037577;28;20186;-87
2022/04/03 04:06:12;;;;;;;3.72;3.25;;;;;;;;;;5038208;28;20173;-88
2022/04/03 04:08:38;;;;;;;5.18;3.33;;;;;;;;;;5037712;28;20297;-87
2022/04/03 04:11:04;;;;;;;3.55;2.90;;;;;;;;;;5048934;28;20219;-87
2022/04/03 04:13:30;;;;;;;8.07;4.43;;;;;;;;;;5051721;28;20367;-88
2022/04/03 04:15:56;;;;;;;4.20;3.33;;;;;;;;;;5038962;28;20182;-88
2022/04/03 04:18:22;;;;;;;5.35;3.70;;;;;;;;;;5062427;28;20286;-87
2022/04/03 04:20:50;;;;;;;3.83;2.95;;;;;;;;;;5035350;28;20228;-87
2022/04/03 04:23:16;;;;;;;4.68;3.53;;;;;;;;;;5043285;28;20209;-87
2022/04/03 04:25:42;;;;;;;3.72;3.17;;;;;;;;;;5044526;28;20249;-87
2022/04/03 04:28:08;;;;;;;3.63;3.25;;;;;;;;;;5042564;28;20182;-88
2022/04/03 04:30:34;;;;;;;7.80;3.53;;;;;;;;;;5031460;28;20188;-87
2022/04/03 04:33:01;;;;;;;5.45;3.58;;;;;;;;;;5037076;28;20209;-86
2022/04/03 04:35:27;;;;;;;5.53;3.50;;;;;;;;;;5040438;28;20182;-86
2022/04/03 04:37:53;;;;;;;3.85;3.08;;;;;;;;;;5044312;28;20186;-87
2022/04/03 04:40:19;;;;;;;3.38;2.83;;;;;;;;;;5027389;28;20185;-87
2022/04/03 04:42:47;;;;;;;4.53;2.97;;;;;;;;;;5027822;28;20190;-87
2022/04/03 04:45:14;;;;;;;3.95;3.33;;;;;;;;;;5042826;28;20178;-88
2022/04/03 04:47:41;;;;;;;5.53;3.10;;;;;;;;;;5039945;28;20242;-88
2022/04/03 04:50:11;;;;;;;10.88;3.38;;;;;;;;;;5029613;28;20181;-88
2022/04/03 04:52:37;;;;;;;3.35;2.90;;;;;;;;;;5043344;28;20301;-87
2022/04/03 04:55:05;;;;;;;4.22;2.80;;;;;;;;;;5042258;28;20170;-87
2022/04/03 04:57:32;;;;;;;3.08;2.78;;;;;;;;;;5046218;28;20170;-89
2022/04/03 04:59:59;;;;;;;5.30;4.45;;;;;;;;;;5042633;28;20190;-89
2022/04/03 05:02:25;;;;;;;5.95;3.17;;;;;;;;;;5039851;28;20210;-88
2022/04/03 05:04:51;;;;;;;4.95;3.50;;;;;;;;;;5040829;28;20265;-89
2022/04/03 05:07:17;;;;;;;4.32;3.13;;;;;;;;;;5041981;28;20648;-89
2022/04/03 05:09:43;;;;;;;4.70;3.05;;;;;;;;;;5031585;28;20183;-91
2022/04/03 05:12:10;;;;;;;8.82;3.58;;;;;;;;;;5033255;28;20182;-88
2022/04/03 05:14:37;;;;;;;7.82;3.08;;;;;;;;;;5031249;28;20186;-88
2022/04/03 05:17:04;;;;;;;4.22;3.80;;;;;;;;;;5033162;28;20185;-89
2022/04/03 05:19:30;;;;;;;5.38;3.50;;;;;;;;;;5030059;28;20186;-89
2022/04/03 05:21:56;;;;;;;3.38;3.08;;;;;;;;;;5039807;28;20278;-88
2022/04/03 05:24:22;;;;;;;5.10;3.13;;;;;;;;;;5034455;28;20221;-88
2022/04/03 05:26:48;;;;;;;4.40;3.25;;;;;;;;;;5033398;28;20178;-88
2022/04/03 05:29:14;;;;;;;5.68;4.05;;;;;;;;;;5028771;28;20191;-88
2022/04/03 05:31:40;;;;;;;5.45;3.55;;;;;;;;;;5043634;28;20186;-88
2022/04/03 05:34:06;;;;;;;4.57;4.05;;;;;;;;;;5043378;28;20181;-88
2022/04/03 05:36:32;;;;;;;4.63;2.90;;;;;;;;;;5040014;28;20181;-88
2022/04/03 05:38:58;;;;;;;6.05;3.40;;;;;;;;;;5035198;28;20190;-87
2022/04/03 05:41:24;;;;;;;8.40;3.10;;;;;;;;;;5031123;28;20225;-87
2022/04/03 05:43:50;;;;;;;6.65;3.15;;;;;;;;;;5028374;28;20185;-87
2022/04/03 05:46:16;;;;;;;4.57;3.47;;;;;;;;;;5041812;28;20237;-88
2022/04/03 05:48:42;;;;;;;4.85;3.45;;;;;;;;;;5030518;28;20186;-87
2022/04/03 05:51:08;;;;;;;6.85;3.55;;;;;;;;;;5033292;28;20186;-87
2022/04/03 05:53:34;;;;;;;6.20;3.38;;;;;;;;;;5032012;28;20190;-88
2022/04/03 05:56:00;;;;;;;3.85;3.45;;;;;;;;;;5042030;28;20194;-88
2022/04/03 05:58:26;;;;;;;4.53;4.13;;;;;;;;;;5026633;28;20224;-87
2022/04/03 06:00:52;;;;;;;5.18;3.90;;;;;;;;;;5033901;28;20224;-88
2022/04/03 06:03:18;;;;;;;4.55;3.42;;;;;;;;;;5032595;28;20622;-87
2022/04/03 06:05:44;;;;;;;3.78;3.40;;;;;;;;;;5032189;28;20245;-87
2022/04/03 06:08:10;;;;;;;3.88;3.40;;;;;;;;;;5042218;28;20182;-88
2022/04/03 06:10:36;;;;;;;5.15;3.90;;;;;;;;;;5026016;28;20245;-87
2022/04/03 06:13:04;;;;;;;4.00;3.60;;;;;;;;;;5035006;28;20174;-88
2022/04/03 06:15:34;;;;;;;5.05;4.55;;;;;;;;;;5045235;28;20184;-89
2022/04/03 06:18:04;;;;;;;4.93;4.35;;;;;;;;;;5035118;28;20183;-88
2022/04/03 06:20:30;;;;;;;8.75;4.75;;;;;;;;;;5036999;28;20225;-88
2022/04/03 06:22:57;;;;;;;4.18;3.50;;;;;;;;;;5054358;28;20208;-89
2022/04/03 06:25:23;;;;;;;3.92;3.35;;;;;;;;;;5025634;28;20174;-89
2022/04/03 06:27:51;;;;;;;9.13;4.63;;;;;;;;;;5042020;28;20188;-86
2022/04/03 06:30:17;;;;;;;4.55;3.40;;;;;;;;;;5045977;28;20235;-86
2022/04/03 06:32:43;;;;;;;4.70;3.65;;;;;;;;;;5040096;28;20193;-86
2022/04/03 06:35:09;;;;;;;5.97;5.10;;;;;;;;;;5041424;28;20193;-87
2022/04/03 06:37:36;;;;;;;5.07;3.47;;;;;;;;;;5048283;28;20190;-86
2022/04/03 06:40:02;;;;;;;7.78;3.97;;;;;;;;;;5035202;28;20203;-86
2022/04/03 06:42:30;;;;;;;4.50;3.10;;;;;;;;;;5038118;28;20256;-86
2022/04/03 06:44:56;;;;;;;3.88;3.00;;;;;;;;;;5037380;28;20182;-87
2022/04/03 06:47:22;;;;;;;5.15;3.50;;;;;;;;;;5073550;28;20192;-87
2022/04/03 06:49:48;;;;;;;5.80;3.95;;;;;;;;;;5025586;28;20187;-86
2022/04/03 06:52:14;;;;;;;7.50;3.72;;;;;;;;;;5029637;28;20190;-84
2022/04/03 06:54:40;;;;;;;6.03;3.22;;;;;;;;;;5037699;28;20185;-83
2022/04/03 06:57:06;;;;;;;6.75;3.30;;;;;;;;;;5032718;28;20182;-84
2022/04/03 06:59:32;;;;;;;5.25;3.63;;;;;;;;;;5032872;28;20186;-83
2022/04/03 07:01:58;;;;;;;3.30;3.00;;;;;;;;;;5036710;28;20653;-84
2022/04/03 07:04:24;;;;;;;4.70;2.83;;;;;;;;;;5033398;28;20190;-83
2022/04/03 07:06:50;;;;;;;3.75;2.88;;;;;;;;;;5034461;28;20174;-83
2022/04/03 07:09:16;;;;;;;2.80;2.60;;;;;;;;;;5034002;28;20188;-82
2022/04/03 07:11:42;;;;;;;9.68;4.10;;;;;;;;;;5035657;28;20185;-83
2022/04/03 07:14:08;;;;;;;4.95;3.60;;;;;;;;;;5039197;28;20208;-83
2022/04/03 07:16:34;;;;;;;3.97;3.57;;;;;;;;;;5063939;28;20189;-83
2022/04/03 07:19:00;;;;;;;3.60;3.40;;;;;;;;;;5033968;28;20425;-84
2022/04/03 07:21:26;;;;;;;3.65;3.28;;;;;;;;;;5035592;28;20201;-83
2022/04/03 07:23:52;;;;;;;5.03;2.72;;;;;;;;;;5032212;28;20245;-82
2022/04/03 07:26:18;;;;;;;6.25;3.05;;;;;;;;;;5038006;28;20186;-82
2022/04/03 07:28:45;;;;;;;6.20;3.35;;;;;;;;;;5034790;28;20216;-83
2022/04/03 07:31:11;;;;;;;8.13;3.00;;;;;;;;;;5059909;28;20201;-84
2022/04/03 07:33:37;;;;;;;5.45;2.88;;;;;;;;;;5035418;28;20196;-83
2022/04/03 07:36:04;;;;;;;3.65;2.55;;;;;;;;;;5039305;28;20239;-83
2022/04/03 07:38:30;;;;;;;4.20;2.70;;;;;;;;;;5032949;28;20206;-84
2022/04/03 07:40:56;;;;;;;3.30;3.00;;;;;;;;;;5025775;28;20297;-83
2022/04/03 07:43:22;;;;;;;3.70;3.22;;;;;;;;;;5039403;28;20170;-83
2022/04/03 07:45:49;;;;;;;5.45;3.70;;;;;;;;;;5032365;28;20179;-85
2022/04/03 07:48:16;;;;;;;4.57;2.95;;;;;;;;;;5060230;28;20178;-85
2022/04/03 07:50:42;;;;;;;7.15;3.28;;;;;;;;;;5029293;28;20171;-86
2022/04/03 07:53:08;;;;;;;4.47;2.92;;;;;;;;;;5062717;28;20189;-85
2022/04/03 07:55:34;;;;;;;7.18;3.88;;;;;;;;;;5037401;28;20205;-85
2022/04/03 07:58:00;;;;;;;3.90;3.55;;;;;;;;;;5046952;28;20209;-85
2022/04/03 08:00:26;;;;;;;5.03;3.90;;;;;;;;;;5027187;28;20200;-83
2022/04/03 08:02:52;;;;;;;4.88;3.80;;;;;;;;;;5026016;28;20179;-85
2022/04/03 08:05:18;;;;;;;4.47;2.75;;;;;;;;;;5030822;28;20186;-84
2022/04/03 08:07:45;;;;;;;5.40;3.23;;;;;;;;;;5031838;28;20209;-86
2022/04/03 08:10:12;;;;;;;5.00;2.92;;;;;;;;;;5031406;28;20439;-84
2022/04/03 08:12:39;;;;;;;3.40;2.58;;;;;;;;;;5028452;28;20237;-84
2022/04/03 08:15:07;;;;;;;3.25;2.50;;;;;;;;;;5034484;28;20197;-86
2022/04/03 08:17:34;;;;;;;4.18;2.42;;;;;;;;;;5039336;28;20192;-84
2022/04/03 08:20:00;;;;;;;2.83;2.63;;;;;;;;;;5041838;28;20201;-83
2022/04/03 08:22:26;;;;;;;5.10;2.55;;;;;;;;;;5024276;28;20217;-84
2022/04/03 08:24:52;;;;;;;3.15;2.30;;;;;;;;;;5039122;28;20178;-85
2022/04/03 08:27:18;;;;;;;4.15;2.80;;;;;;;;;;5035930;28;20182;-85
2022/04/03 08:29:44;;;;;;;3.33;2.60;;;;;;;;;;5031421;28;20197;-83
2022/04/03 08:32:11;;;;;;;3.03;2.72;;;;;;;;;;5026621;28;20194;-81
2022/04/03 08:34:37;;;;;;;4.32;2.67;;;;;;;;;;5026405;28;20186;-82
2022/04/03 08:37:03;;;;;;;5.30;2.72;;;;;;;;;;5049065;28;20181;-84
2022/04/03 08:39:29;;;;;;;4.00;2.35;;;;;;;;;;5029784;28;20182;-83
2022/04/03 08:41:58;;;;;;;5.60;2.35;;;;;;;;;;5035378;28;20704;-83
2022/04/03 08:44:25;;;;;;;2.00;1.80;;;;;;;;;;5032854;28;20188;-81
2022/04/03 08:46:51;;;;;;;2.72;2.25;;;;;;;;;;5028651;28;20625;-84
2022/04/03 08:49:19;;;;;;;3.55;2.25;;;;;;;;;;5024365;28;20202;-82
2022/04/03 08:51:46;;;;;;;3.38;2.75;;;;;;;;;;5034496;28;20181;-81
2022/04/03 08:54:13;;;;;;;4.65;1.75;;;;;;;;;;5030944;28;20229;-81
2022/04/03 08:56:39;;;;;;;3.35;1.92;;;;;;;;;;5028755;28;20297;-82
2022/04/03 08:59:06;;;;;;;3.90;1.60;;;;;;;;;;5059624;28;20202;-82
2022/04/03 09:01:32;;;;;;;2.90;1.92;;;;;;;;;;5044123;28;20220;-79
2022/04/03 09:03:58;;;;;;;5.10;1.50;;;;;;;;;;5037355;28;20179;-80
2022/04/03 09:06:24;;;;;;;4.00;2.00;;;;;;;;;;5038860;28;20209;-80
2022/04/03 09:08:50;;;;;;;2.10;1.77;;;;;;;;;;5037842;28;20186;-80
2022/04/03 09:11:16;;;;;;;1.85;1.75;;;;;;;;;;5033312;28;20197;-80
2022/04/03 09:13:44;;;;;;;1.60;1.50;;;;;;;;;;5027712;28;20177;-79
2022/04/03 09:16:10;;;;;;;3.00;1.50;;;;;;;;;;5041061;28;20174;-79
2022/04/03 09:18:43;;;;;;;1.40;1.30;;;;;;;;;;5053366;28;20179;-78
2022/04/03 09:21:20;;;;;;;3.95;1.75;;;;;;;;;;5062865;28;20226;-80
2022/04/03 09:24:00;;;;;;;1.50;1.40;;;;;;;;;;5032919;28;20184;-78
2022/04/03 09:26:26;;;;;;;2.63;1.52;;;;;;;;;;5040485;28;20192;-82
2022/04/03 09:29:05;;;;;;;1.70;1.27;;;;;;;;;;5027952;28;20189;-80
2022/04/03 09:31:31;;;;;;;1.48;1.35;;;;;;;;;;5041645;28;20324;-79
2022/04/03 09:34:06;;;;;;;2.55;1.50;;;;;;;;;;5030657;28;20172;-79
2022/04/03 09:36:32;;;;;;;1.35;1.23;;;;;;;;;;5035390;28;20182;-81
2022/04/03 09:39:28;;;;;;;3.72;1.25;;;;;;;;;;5037857;28;20216;-80
2022/04/03 09:42:01;;;;;;;1.35;1.08;;;;;;;;;;5041468;28;20870;-81
2022/04/03 09:44:28;;;;;;;3.00;1.30;;;;;;;;;;5040148;28;20185;-81
2022/04/03 09:47:13;;;;;;;2.20;1.40;;;;;;;;;;5028114;28;20185;-81
2022/04/03 09:49:39;;;;;;;2.25;2.05;;;;;;;;;;5025700;28;20181;-83
2022/04/03 09:52:05;;;;;;;1.20;1.10;;;;;;;;;;5039966;28;20268;-82
2022/04/03 09:54:31;;;;;;;2.05;1.30;;;;;;;;;;5026355;28;20241;-83
2022/04/03 09:57:18;;;;;;;1.80;1.65;;;;;;;;;;5031169;28;20216;-83
2022/04/03 09:59:50;;;;;;;1.75;1.65;;;;;;;;;;5031629;28;20192;-85
2022/04/03 10:02:16;;;;;;;2.25;2.05;;;;;;;;;;5031535;28;20707;-84
2022/04/03 10:04:43;;;;;;;4.30;1.70;;;;;;;;;;5026546;28;20380;-83
2022/04/03 10:07:12;;;;;;;2.03;1.35;;;;;;;;;;5041456;28;20178;-83
2022/04/03 10:09:40;;;;;;;3.40;2.00;;;;;;;;;;5042711;28;20216;-82
2022/04/03 10:12:07;;;;;;;3.00;1.88;;;;;;;;;;5032553;28;20237;-84
2022/04/03 10:14:33;;;;;;;3.30;2.00;;;;;;;;;;5035686;28;20179;-83
2022/04/03 10:16:59;;;;;;;2.08;1.88;;;;;;;;;;5027768;28;20182;-82
2022/04/03 10:19:26;;;;;;;3.53;3.22;;;;;;;;;;5025583;28;20203;-83
2022/04/03 10:21:54;;;;;;;2.08;1.88;;;;;;;;;;5029674;28;20260;-81
2022/04/03 10:24:24;;;;;;;1.83;1.27;;;;;;;;;;5036588;28;20224;-82
2022/04/03 10:27:04;;;;;;;2.47;1.50;;;;;;;;;;5034960;28;20630;-83
2022/04/03 10:29:32;;;;;;;1.30;1.20;;;;;;;;;;5035185;28;20316;-82
2022/04/03 10:31:59;;;;;;;1.55;1.45;;;;;;;;;;5042431;28;20186;-79
2022/04/03 10:34:26;;;;;;;2.65;2.13;;;;;;;;;;5025709;28;20225;-80
2022/04/03 10:36:52;;;;;;;3.55;1.60;;;;;;;;;;5042042;28;20173;-81
2022/04/03 10:39:24;;;;;;;1.90;1.27;;;;;;;;;;5031695;28;20357;-80
2022/04/03 10:41:50;;;;;;;5.55;2.03;;;;;;;;;;5032966;28;20225;-79
2022/04/03 10:44:24;;;;;;;2.90;1.60;;;;;;;;;;5041462;28;20182;-80
2022/04/03 10:47:03;;;;;;;1.83;1.27;;;;;;;;;;5041370;28;20236;-85
2022/04/03 10:49:49;;;;;;;1.13;1.02;;;;;;;;;;5055583;28;20641;-85
2022/04/03 10:52:18;;;;;;;3.70;1.70;;;;;;;;;;5069366;28;20261;-91
2022/04/03 10:54:49;;;;;;;1.45;1.20;;;;;;;;;;5037973;28;20178;-92
2022/04/03 10:57:31;;;;;;;3.50;2.92;;;;;;;;;;5035326;28;20189;-88
2022/04/03 11:00:26;;;;;;;3.63;2.95;;;;;;;;;;5036137;28;20280;-86
2022/04/03 11:02:55;;;;;;;5.05;2.33;;;;;;;;;;5044364;28;20292;-90
2022/04/03 11:05:21;;;;;;;3.22;1.80;;;;;;;;;;5062117;28;20183;-86
2022/04/03 11:07:55;;;;;;;1.25;1.15;;;;;;;;;;5026966;28;20182;-84
2022/04/03 11:10:40;;;;;;;2.80;1.58;;;;;;;;;;5034750;28;20526;-84
2022/04/03 11:13:09;;;;;;;1.92;1.65;;;;;;;;;;5040487;28;20188;-83
2022/04/03 11:15:50;;;;;;;1.50;1.40;;;;;;;;;;5030786;28;20190;-83
2022/04/03 11:18:35;;;;;;;1.40;1.10;;;;;;;;;;5028912;28;20179;-82
2022/04/03 11:21:11;;;;;;;1.63;1.20;;;;;;;;;;5029782;28;20205;-82
2022/04/03 11:23:40;;;;;;;1.27;1.17;;;;;;;;;;5029956;28;20215;-83
2022/04/03 11:26:07;;;;;;;1.40;1.30;;;;;;;;;;5041879;28;20268;-83
2022/04/03 11:28:36;;;;;;;1.80;1.27;;;;;;;;;;5035558;28;20182;-82
2022/04/03 11:31:03;;;;;;;1.90;1.65;;;;;;;;;;5024496;28;20224;-83
2022/04/03 11:33:30;;;;;;;1.55;1.27;;;;;;;;;;5028285;28;20178;-82
2022/04/03 11:36:01;;;;;;;1.90;1.27;;;;;;;;;;5030535;28;20210;-84
2022/04/03 11:38:33;;;;;;;1.75;1.23;;;;;;;;;;5027620;28;20301;-84
2022/04/03 11:41:01;;;;;;;1.80;1.42;;;;;;;;;;5042490;28;20612;-83
2022/04/03 11:43:27;;;;;;;1.67;1.30;;;;;;;;;;5025243;28;20194;-82
2022/04/03 11:45:57;;;;;;;1.65;1.10;;;;;;;;;;5023236;28;20200;-84
2022/04/03 11:48:25;;;;;;;1.38;1.20;;;;;;;;;;5039431;28;20186;-82
2022/04/03 11:51:02;;;;;;;1.77;1.67;;;;;;;;;;5036170;28;20191;-83
2022/04/03 11:53:28;;;;;;;2.15;1.40;;;;;;;;;;5036639;28;20197;-86
2022/04/03 11:55:55;;;;;;;1.47;1.27;;;;;;;;;;5029568;28;20305;-83
2022/04/03 11:58:29;;;;;;;2.17;1.58;;;;;;;;;;5030781;28;20427;-81
2022/04/03 12:00:57;;;;;;;2.50;1.73;;;;;;;;;;5039260;28;20684;-81
2022/04/03 12:03:27;;;;;;;1.98;1.88;;;;;;;;;;5063435;28;20183;-82
2022/04/03 12:06:13;;;;;;;1.65;1.55;;;;;;;;;;5032780;28;20391;-83
2022/04/03 12:08:39;;;;;;;2.00;1.75;;;;;;;;;;5027348;28;20182;-81
2022/04/03 12:11:18;;;;;;;1.70;1.55;;;;;;;;;;5028168;28;20209;-80
2022/04/03 12:13:44;;;;;;;2.03;1.40;;;;;;;;;;5028073;28;20190;-82
2022/04/03 12:16:16;;;;;;;1.55;1.40;;;;;;;;;;5038866;28;20181;-82
2022/04/03 12:18:55;;;;;;;1.08;1.00;;;;;;;;;;5042808;28;20245;-80
2022/04/03 12:21:22;;;;;;;1.88;1.58;;;;;;;;;;5040511;28;20206;-81
2022/04/03 12:24:06;;;;;;;3.95;1.73;;;;;;;;;;5035123;28;20186;-80
2022/04/03 12:26:33;;;;;;;1.50;1.40;;;;;;;;;;5041173;28;20184;-82
2022/04/03 12:29:00;;;;;;;1.70;1.60;;;;;;;;;;5037661;28;20188;-81
2022/04/03 12:31:31;;;;;;;2.38;1.30;;;;;;;;;;5038648;28;20286;-82
2022/04/03 12:34:07;;;;;;;1.48;1.38;;;;;;;;;;5025842;28;20187;-84
2022/04/03 12:37:02;;;;;;;1.63;1.52;;;;;;;;;;5032410;28;20190;-82
2022/04/03 12:39:29;;;;;;;1.70;1.60;;;;;;;;;;5058136;28;20285;-81
2022/04/03 12:42:08;;;;;;;2.33;1.63;;;;;;;;;;5048836;28;20759;-82
2022/04/03 12:44:40;;;;;;;1.47;1.37;;;;;;;;;;5044435;28;20486;-81
2022/04/03 12:47:33;;;;;;;2.17;1.58;;;;;;;;;;5050407;28;20411;-82
2022/04/03 12:50:05;;;;;;;1.73;1.52;;;;;;;;;;5029540;28;20257;-81
2022/04/03 12:52:52;;;;;;;1.63;1.52;;;;;;;;;;5027241;28;20190;-83
2022/04/03 12:55:24;;;;;;;2.40;1.80;;;;;;;;;;5047234;28;20169;-83
2022/04/03 13:00:44;;;;;;;1.98;1.55;;;;;;;;;;5042095;28;20240;-80
2022/04/03 13:03:10;;;;;;;1.63;1.52;;;;;;;;;;5030554;28;20190;-81
2022/04/03 13:05:38;;;;;;;1.75;1.60;;;;;;;;;;5040408;28;20198;-81
2022/04/03 13:08:11;;;;;;;1.40;1.20;;;;;;;;;;5052106;28;20203;-81
2022/04/03 13:10:56;;;;;;;1.53;1.43;;;;;;;;;;5043280;28;20483;-82
2022/04/03 13:13:23;;;;;;;1.90;1.80;;;;;;;;;;5036159;28;20423;-82
2022/04/03 13:15:49;;;;;;;4.57;1.67;;;;;;;;;;5043140;28;20410;-83
2022/04/03 13:18:15;;;;;;;2.10;1.50;;;;;;;;;;5041525;28;20409;-84
2022/04/03 13:20:47;;;;;;;3.10;1.90;;;;;;;;;;5034596;28;20450;-82
2022/04/03 13:23:13;;;;;;;2.37;1.40;;;;;;;;;;5030343;28;20519;-82
2022/04/03 13:25:39;;;;;;;1.60;1.50;;;;;;;;;;5032447;28;20408;-81
2022/04/03 13:28:05;;;;;;;2.17;1.90;;;;;;;;;;5040132;28;20517;-82
2022/04/03 13:30:34;;;;;;;1.40;1.30;;;;;;;;;;5031003;28;20844;-82
2022/04/03 13:33:01;;;;;;;1.95;1.75;;;;;;;;;;5029016;28;20201;-81
2022/04/03 13:35:27;;;;;;;2.20;1.75;;;;;;;;;;5029280;28;20250;-82
2022/04/03 13:37:53;;;;;;;3.40;2.88;;;;;;;;;;5038738;28;20184;-82
2022/04/03 13:40:19;;;;;;;4.05;1.90;;;;;;;;;;5039988;28;20172;-83
2022/04/03 13:42:45;;;;;;;4.68;2.15;;;;;;;;;;5029426;28;20190;-82
2022/04/03 13:45:11;;;;;;;1.98;1.83;;;;;;;;;;5030651;28;20210;-82
2022/04/03 13:47:37;;;;;;;2.17;1.97;;;;;;;;;;5029909;28;20193;-81
2022/04/03 13:50:04;;;;;;;3.45;2.40;;;;;;;;;;5030303;28;20441;-81
2022/04/03 13:52:30;;;;;;;1.95;1.85;;;;;;;;;;5051118;28;20188;-82
2022/04/03 13:54:57;;;;;;;2.45;2.25;;;;;;;;;;5051420;28;20187;-81
2022/04/03 13:57:23;;;;;;;2.70;1.70;;;;;;;;;;5049538;28;20181;-81
2022/04/03 13:59:50;;;;;;;2.58;2.38;;;;;;;;;;5046004;28;20178;-83
2022/04/03 14:02:17;;;;;;;2.00;1.80;;;;;;;;;;5043885;28;20229;-82
2022/04/03 14:04:43;;;;;;;1.73;1.63;;;;;;;;;;5051821;28;20175;-81
2022/04/03 14:07:09;;;;;;;2.65;2.30;;;;;;;;;;5051632;28;20173;-80
2022/04/03 14:09:35;;;;;;;2.33;2.15;;;;;;;;;;5038638;28;20194;-80
2022/04/03 14:12:01;;;;;;;2.30;2.10;;;;;;;;;;5063505;28;20442;-81
2022/04/03 14:14:31;;;;;;;1.95;1.85;;;;;;;;;;5029387;28;20195;-80
2022/04/03 14:16:57;;;;;;;3.95;2.00;;;;;;;;;;5038888;28;20568;-81
2022/04/03 14:19:23;;;;;;;4.13;2.10;;;;;;;;;;5039933;28;20238;-82
2022/04/03 14:21:49;;;;;;;2.88;2.40;;;;;;;;;;5030124;28;20229;-80
2022/04/03 14:24:15;;;;;;;2.93;2.00;;;;;;;;;;5035269;28;20194;-82
2022/04/03 14:26:45;;;;;;;4.43;2.20;;;;;;;;;;5037315;28;20437;-80
2022/04/03 14:29:11;;;;;;;3.30;1.90;;;;;;;;;;5035055;28;20177;-81
2022/04/03 14:31:37;;;;;;;4.40;1.75;;;;;;;;;;5045659;28;20178;-80
2022/04/03 14:34:03;;;;;;;4.72;2.00;;;;;;;;;;5042164;28;20621;-82
2022/04/03 14:36:29;;;;;;;2.75;2.20;;;;;;;;;;5047694;28;20239;-80
2022/04/03 14:38:55;;;;;;;2.00;1.90;;;;;;;;;;5043924;28;20185;-81
2022/04/03 14:41:21;;;;;;;5.65;2.78;;;;;;;;;;5036667;28;20234;-81
2022/04/03 14:43:47;;;;;;;3.25;1.80;;;;;;;;;;5048577;28;20190;-81
2022/04/03 14:46:14;;;;;;;3.97;2.42;;;;;;;;;;5037024;28;20181;-79
2022/04/03 14:48:40;;;;;;;7.50;3.05;;;;;;;;;;5042423;28;20184;-81
2022/04/03 14:51:06;;;;;;;2.27;1.93;;;;;;;;;;5030672;28;20265;-80